Hartford, Connecticut
Traffic Map
Current Weather Conditions
Hartford, Connecticut
Overcast
Overcast
42°
Feels Like: 37°
Wind Chill: 37° Ceiling: 6000
Heat Index: 42° Visibility: 10mi
Dew Point: 21° Wind: 9mph
Humidity: 43% Direction: 190° (S)
Pressure: 30.15in Gusts: 0mph
Raw Report DataKHFD 231153Z AUTO 19008KT 10SM BKN060 OVC075 06/M06 A3015 RMK AO2 SLP209 T00561061 10061 20050 53003
Traffic Incident Summary
Active as of:
Severity:
Category:
InformationThere was an issue retrieving the traffic information for this location. Please try a different location or try again shortly.
Advertisements
Track Severe Weather on mobile